Time;durP1;ratioP1;P1;durP2;ratioP2;P2;SDS_P1;SDS_P2;PMS_P1;PMS_P2;Temp;Humidity;BMP_temperature;BMP_pressure;BME280_temperature;BME280_humidity;BME280_pressure;Samples;Min_cycle;Max_cycle;Signal;HPM_P1;HPM_P2
2023/06/15 00:00:49;;;;;;;6.57;6.07;;;18.10;99.90;;;;;;5076664;28;20483;-53
2023/06/15 00:03:16;;;;;;;8.17;7.47;;;18.00;99.90;;;;;;5075951;28;20545;-53
2023/06/15 00:05:42;;;;;;;7.40;6.80;;;18.00;99.90;;;;;;5063567;28;20444;-54
2023/06/15 00:08:07;;;;;;;7.50;6.80;;;17.90;99.90;;;;;;5071877;28;20500;-48
2023/06/15 00:10:33;;;;;;;7.10;6.40;;;17.90;99.90;;;;;;5073134;28;20189;-53
2023/06/15 00:12:59;;;;;;;7.80;7.00;;;17.80;99.90;;;;;;5055976;28;20604;-50
2023/06/15 00:15:27;;;;;;;7.40;6.80;;;17.80;99.90;;;;;;5059348;28;20177;-52
2023/06/15 00:17:53;;;;;;;7.10;6.50;;;17.70;99.90;;;;;;5078327;28;20340;-49
2023/06/15 00:20:22;;;;;;;8.33;6.80;;;17.70;99.90;;;;;;5079212;28;20447;-51
2023/06/15 00:22:49;;;;;;;7.77;7.17;;;17.70;99.90;;;;;;5077940;28;20196;-53
2023/06/15 00:25:15;;;;;;;8.63;7.40;;;17.60;99.90;;;;;;5078347;28;20805;-49
2023/06/15 00:27:40;;;;;;;7.10;6.40;;;17.60;99.90;;;;;;5077889;28;20435;-50
2023/06/15 00:30:09;;;;;;;6.90;6.40;;;17.60;99.90;;;;;;5080026;28;20189;-52
2023/06/15 00:32:34;;;;;;;7.60;6.97;;;17.60;99.90;;;;;;5079248;28;20204;-50
2023/06/15 00:35:00;;;;;;;7.07;6.47;;;17.60;99.90;;;;;;5078450;28;20423;-53
2023/06/15 00:37:25;;;;;;;7.10;6.40;;;17.60;99.90;;;;;;5082761;28;20582;-49
2023/06/15 00:39:55;;;;;;;7.13;6.53;;;17.60;99.90;;;;;;5078516;28;20181;-51
2023/06/15 00:42:20;;;;;;;8.00;6.90;;;17.60;99.90;;;;;;5079396;28;20337;-50
2023/06/15 00:44:46;;;;;;;9.87;6.57;;;17.60;99.90;;;;;;5077228;28;20522;-49
2023/06/15 00:47:11;;;;;;;8.40;6.40;;;17.60;99.90;;;;;;5077312;28;20590;-51
2023/06/15 00:49:37;;;;;;;7.23;6.63;;;17.50;99.90;;;;;;5078564;28;20184;-51
2023/06/15 00:52:03;;;;;;;7.33;6.73;;;17.50;99.90;;;;;;5076970;28;20209;-52
2023/06/15 00:54:29;;;;;;;8.57;6.80;;;17.50;99.90;;;;;;5076964;28;20215;-50
2023/06/15 00:56:56;;;;;;;7.03;6.43;;;17.60;99.90;;;;;;5075903;28;20458;-51
2023/06/15 00:59:21;;;;;;;7.13;6.43;;;17.60;99.90;;;;;;5076638;28;20415;-54
2023/06/15 01:01:47;;;;;;;7.53;6.93;;;17.60;99.90;;;;;;5075470;28;20432;-51
2023/06/15 01:04:17;;;;;;;8.87;8.07;;;17.60;99.90;;;;;;5075332;28;20627;-50
2023/06/15 01:06:51;;;;;;;9.13;7.50;;;17.60;99.90;;;;;;5077559;28;20431;-53
2023/06/15 01:09:21;;;;;;;8.10;7.30;;;17.60;99.90;;;;;;5076917;28;20831;-51
2023/06/15 01:11:53;;;;;;;7.00;6.40;;;17.60;99.90;;;;;;5077509;28;20503;-49
2023/06/15 01:14:20;;;;;;;8.30;7.50;;;17.50;99.90;;;;;;5060403;28;20438;-52
2023/06/15 01:16:52;;;;;;;7.60;6.67;;;17.40;99.90;;;;;;5088752;28;20797;-51
2023/06/15 01:19:40;;;;;;;7.47;6.87;;;17.40;99.90;;;;;;5080464;28;20513;-50
2023/06/15 01:22:34;;;;;;;7.37;6.67;;;17.40;99.90;;;;;;5098062;28;20544;-50
2023/06/15 01:25:10;;;;;;;7.33;6.67;;;17.40;99.90;;;;;;5079167;28;20709;-51
2023/06/15 01:27:37;;;;;;;7.77;7.17;;;17.40;99.90;;;;;;5063530;28;20579;-52
2023/06/15 01:30:04;;;;;;;8.07;7.37;;;17.40;99.90;;;;;;5098136;28;20456;-52
2023/06/15 01:32:32;;;;;;;7.60;7.03;;;17.40;99.90;;;;;;5097070;28;20770;-48
2023/06/15 01:34:57;;;;;;;7.73;7.10;;;17.40;99.90;;;;;;5098120;28;20421;-49
2023/06/15 01:37:23;;;;;;;7.37;6.70;;;17.30;99.90;;;;;;5098023;28;20418;-51
2023/06/15 01:39:48;;;;;;;7.70;7.00;;;17.40;99.90;;;;;;5097728;28;20184;-49
2023/06/15 01:42:14;;;;;;;7.37;6.63;;;17.30;99.90;;;;;;5097571;28;20180;-50
2023/06/15 01:44:40;;;;;;;7.30;6.60;;;17.20;99.90;;;;;;5079884;28;20257;-53
2023/06/15 01:47:06;;;;;;;8.17;7.47;;;17.30;99.90;;;;;;5112697;28;20725;-51
2023/06/15 01:49:32;;;;;;;7.50;6.90;;;17.40;99.90;;;;;;5117983;28;20232;-49
2023/06/15 01:51:58;;;;;;;7.03;6.53;;;17.30;99.90;;;;;;5117461;28;20473;-51
2023/06/15 01:54:23;;;;;;;7.70;7.10;;;17.20;99.90;;;;;;5118173;28;20246;-51
2023/06/15 01:56:49;;;;;;;7.07;6.47;;;17.20;99.90;;;;;;5099549;28;20188;-49
2023/06/15 01:59:15;;;;;;;8.30;7.60;;;17.20;99.90;;;;;;5100203;28;20179;-49
2023/06/15 02:01:40;;;;;;;7.57;6.97;;;17.20;1.00;;;;;;5082964;28;20194;-49
2023/06/15 02:04:06;;;;;;;7.33;6.73;;;17.10;1.00;;;;;;5117345;28;20272;-54
2023/06/15 02:06:31;;;;;;;8.00;7.30;;;17.10;1.00;;;;;;5099306;28;20206;-51
2023/06/15 02:08:57;;;;;;;8.53;7.73;;;17.10;1.00;;;;;;5117504;28;20195;-53
2023/06/15 02:11:23;;;;;;;7.90;7.30;;;17.00;1.00;;;;;;5099330;28;20260;-54
2023/06/15 02:13:48;;;;;;;7.37;6.77;;;17.00;1.00;;;;;;5099764;28;20222;-49
2023/06/15 02:16:15;;;;;;;7.37;6.77;;;17.00;1.00;;;;;;5117246;28;20236;-49
2023/06/15 02:18:45;;;;;;;7.33;6.83;;;17.00;1.00;;;;;;5117795;28;20514;-49
2023/06/15 02:21:11;;;;;;;8.27;7.57;;;17.00;1.00;;;;;;5116497;28;20525;-50
2023/06/15 02:23:37;;;;;;;8.00;7.30;;;17.00;1.00;;;;;;5116554;28;20835;-51
2023/06/15 02:26:02;;;;;;;6.73;6.23;;;16.90;1.00;;;;;;5117696;28;20410;-51
2023/06/15 02:28:28;;;;;;;6.93;6.23;;;16.90;1.00;;;;;;5116683;28;20490;-52
2023/06/15 02:30:54;;;;;;;7.30;6.50;;;16.90;1.00;;;;;;5116406;28;20184;-52
2023/06/15 02:33:19;;;;;;;7.70;6.80;;;16.90;1.00;;;;;;5116677;28;20239;-53
2023/06/15 02:35:48;;;;;;;8.40;7.43;;;16.90;1.00;;;;;;5116879;28;20450;-49
2023/06/15 02:38:13;;;;;;;7.73;7.13;;;16.90;1.00;;;;;;5116553;28;20252;-50
2023/06/15 02:40:39;;;;;;;8.10;7.40;;;17.00;1.00;;;;;;5096513;28;20421;-50
2023/06/15 02:43:04;;;;;;;7.63;7.03;;;16.90;1.00;;;;;;5114927;28;20176;-52
2023/06/15 02:45:30;;;;;;;8.73;7.27;;;16.90;1.00;;;;;;5096759;28;20195;-52
2023/06/15 02:47:56;;;;;;;7.97;7.33;;;16.80;1.00;;;;;;5115402;28;20375;-51
2023/06/15 02:50:21;;;;;;;7.43;6.83;;;16.80;1.00;;;;;;5097943;28;20180;-51
2023/06/15 02:52:47;;;;;;;6.67;5.97;;;16.90;1.00;;;;;;5115626;28;20208;-52
2023/06/15 02:55:13;;;;;;;7.50;6.90;;;16.90;1.00;;;;;;5097529;28;20176;-49
2023/06/15 02:57:40;;;;;;;7.80;7.10;;;16.90;1.00;;;;;;5113705;28;20532;-50
2023/06/15 03:00:08;;;;;;;7.70;6.90;;;16.90;1.00;;;;;;5113752;28;20421;-48
2023/06/15 03:02:34;;;;;;;7.83;7.13;;;16.90;1.00;;;;;;5112669;28;20921;-50
2023/06/15 03:05:00;;;;;;;7.50;6.83;;;16.80;1.00;;;;;;5077660;28;20449;-54
2023/06/15 03:07:26;;;;;;;8.60;7.67;;;16.90;1.00;;;;;;5077598;28;20266;-53
2023/06/15 03:09:52;;;;;;;9.23;8.53;;;16.90;1.00;;;;;;5113527;28;20549;-54
2023/06/15 03:12:18;;;;;;;8.60;7.90;;;16.90;1.00;;;;;;5097643;28;20318;-50
2023/06/15 03:14:44;;;;;;;11.47;8.57;;;16.90;1.00;;;;;;5115594;28;20441;-50
2023/06/15 03:17:13;;;;;;;7.50;6.90;;;16.90;1.00;;;;;;5115989;28;20556;-50
2023/06/15 03:19:39;;;;;;;8.23;7.30;;;16.90;1.00;;;;;;5116493;28;20449;-52
2023/06/15 03:22:07;;;;;;;7.30;6.60;;;16.90;1.00;;;;;;5116345;28;20421;-49
2023/06/15 03:24:33;;;;;;;8.33;6.87;;;16.90;1.00;;;;;;5098647;28;20516;-51
2023/06/15 03:27:01;;;;;;;7.37;6.77;;;16.90;1.00;;;;;;5115734;28;20765;-52
2023/06/15 03:29:29;;;;;;;7.60;7.00;;;16.90;1.00;;;;;;5115534;28;20422;-50
2023/06/15 03:31:55;;;;;;;8.03;7.43;;;17.00;1.00;;;;;;5116348;28;20429;-50
2023/06/15 03:34:21;;;;;;;8.13;7.53;;;17.00;1.00;;;;;;5116139;28;20429;-50
2023/06/15 03:36:47;;;;;;;7.70;7.00;;;17.00;1.00;;;;;;5116000;28;20665;-48
2023/06/15 03:39:13;;;;;;;7.17;6.57;;;17.00;1.00;;;;;;5115270;28;20179;-50
2023/06/15 03:41:39;;;;;;;7.27;6.60;;;17.00;1.00;;;;;;5114975;28;20402;-49
2023/06/15 03:44:05;;;;;;;7.90;7.10;;;17.10;1.00;;;;;;5116097;28;20796;-48
2023/06/15 03:46:30;;;;;;;8.30;7.50;;;17.10;1.00;;;;;;5116786;28;20192;-53
2023/06/15 03:48:56;;;;;;;7.87;7.17;;;17.20;1.00;;;;;;5117477;28;20422;-53
2023/06/15 03:51:21;;;;;;;8.70;7.93;;;17.20;1.00;;;;;;5118260;28;20457;-52
2023/06/15 03:53:47;;;;;;;7.30;6.70;;;17.20;1.00;;;;;;5118164;28;20195;-51
2023/06/15 03:56:13;;;;;;;7.73;7.17;;;17.10;1.00;;;;;;5118502;28;20180;-52
2023/06/15 03:58:38;;;;;;;7.83;7.13;;;17.10;1.00;;;;;;5119311;28;20180;-50
2023/06/15 04:01:04;;;;;;;7.30;6.60;;;17.10;1.00;;;;;;5118734;28;20187;-52
2023/06/15 04:03:34;;;;;;;8.07;7.37;;;17.10;1.00;;;;;;5119299;28;20194;-50
2023/06/15 04:06:01;;;;;;;7.97;7.37;;;17.10;1.00;;;;;;5119104;28;20851;-50
2023/06/15 04:08:27;;;;;;;8.23;7.43;;;17.00;1.00;;;;;;5118619;28;20443;-52
2023/06/15 04:10:52;;;;;;;7.10;6.50;;;17.00;1.00;;;;;;5118720;28;20433;-52
2023/06/15 04:13:18;;;;;;;7.70;7.10;;;17.00;1.00;;;;;;5118876;28;20890;-52
2023/06/15 04:15:43;;;;;;;8.10;7.40;;;16.90;1.00;;;;;;5118288;28;20244;-50
2023/06/15 04:18:09;;;;;;;8.47;7.30;;;17.00;1.00;;;;;;5117416;28;20244;-49
2023/06/15 04:20:36;;;;;;;7.53;7.03;;;17.00;1.00;;;;;;5118306;28;20461;-49
2023/06/15 04:23:01;;;;;;;7.77;7.17;;;17.00;1.00;;;;;;5118377;28;20176;-48
2023/06/15 04:25:28;;;;;;;8.13;7.37;;;17.00;1.00;;;;;;5118521;28;20703;-50
2023/06/15 04:27:55;;;;;;;7.70;7.00;;;17.00;1.00;;;;;;5117481;28;20599;-50
2023/06/15 04:30:24;;;;;;;8.83;8.03;;;17.00;1.00;;;;;;5116323;28;20405;-50
2023/06/15 04:32:57;;;;;;;7.43;6.73;;;17.00;1.00;;;;;;5117199;28;20457;-49
2023/06/15 04:35:24;;;;;;;7.50;6.80;;;17.10;1.00;;;;;;5117226;28;20432;-51
2023/06/15 04:37:52;;;;;;;8.00;7.27;;;17.10;1.00;;;;;;5116639;28;20429;-50
2023/06/15 04:40:20;;;;;;;6.80;6.30;;;17.20;1.00;;;;;;5117878;28;20460;-51
2023/06/15 04:42:46;;;;;;;8.03;7.23;;;17.20;1.00;;;;;;5100781;28;20448;-49
2023/06/15 04:45:11;;;;;;;7.57;6.97;;;17.20;1.00;;;;;;5116250;28;20417;-49
2023/06/15 04:47:41;;;;;;;8.03;7.23;;;17.20;1.00;;;;;;5097538;28;20417;-52
2023/06/15 04:50:08;;;;;;;7.57;6.97;;;17.20;1.00;;;;;;5097856;28;20183;-50
2023/06/15 04:52:34;;;;;;;8.40;7.70;;;17.20;1.00;;;;;;5098335;28;20731;-49
2023/06/15 04:55:03;;;;;;;8.87;7.97;;;17.20;1.00;;;;;;5116321;28;20425;-49
2023/06/15 04:57:28;;;;;;;8.30;7.60;;;17.20;1.00;;;;;;5114784;28;20777;-53
2023/06/15 04:59:54;;;;;;;8.40;7.70;;;17.20;1.00;;;;;;5115831;28;20401;-51
2023/06/15 05:02:20;;;;;;;7.60;6.83;;;17.20;1.00;;;;;;5114725;28;20183;-51
2023/06/15 05:04:46;;;;;;;8.20;7.50;;;17.30;1.00;;;;;;5116974;28;20421;-51
2023/06/15 05:07:12;;;;;;;8.03;7.23;;;17.30;1.00;;;;;;5114109;28;20449;-49
2023/06/15 05:09:37;;;;;;;8.17;7.57;;;17.40;1.00;;;;;;5114178;28;20520;-50
2023/06/15 05:12:05;;;;;;;8.50;7.80;;;17.50;1.00;;;;;;5111278;28;20244;-50
2023/06/15 05:14:31;;;;;;;8.90;8.20;;;17.60;1.00;;;;;;5111563;28;20534;-50
2023/06/15 05:16:57;;;;;;;7.97;7.30;;;17.60;1.00;;;;;;5092410;28;20228;-50
2023/06/15 05:19:22;;;;;;;7.30;6.80;;;17.70;1.00;;;;;;5108211;28;20639;-50
2023/06/15 05:21:50;;;;;;;9.20;8.40;;;17.80;1.00;;;;;;5104428;28;20425;-49
2023/06/15 05:24:23;;;;;;;8.43;7.73;;;18.00;1.00;;;;;;5096421;28;20210;-49
2023/06/15 05:26:53;;;;;;;7.50;6.80;;;18.10;1.00;;;;;;5074753;28;20410;-50
2023/06/15 05:29:20;;;;;;;8.17;7.47;;;18.30;1.00;;;;;;5091623;28;20514;-51
2023/06/15 05:31:46;;;;;;;8.40;7.70;;;18.40;1.00;;;;;;5090351;28;20414;-50
2023/06/15 05:34:12;;;;;;;9.30;7.83;;;18.50;1.00;;;;;;5091677;28;20502;-51
2023/06/15 05:36:38;;;;;;;6.80;6.17;;;18.50;1.00;;;;;;5074817;28;20521;-51
2023/06/15 05:39:04;;;;;;;7.77;7.17;;;18.60;1.00;;;;;;5073328;28;20438;-50
2023/06/15 05:41:30;;;;;;;9.30;7.97;;;18.70;1.00;;;;;;5091366;28;20694;-53
2023/06/15 05:43:57;;;;;;;7.63;6.93;;;18.80;1.00;;;;;;5092233;28;20855;-52
2023/06/15 05:46:23;;;;;;;8.63;7.93;;;18.90;1.00;;;;;;5090349;28;20422;-49
2023/06/15 05:48:48;;;;;;;7.63;7.00;;;19.10;1.00;;;;;;5087664;28;20423;-52
2023/06/15 05:51:14;;;;;;;11.27;10.23;;;19.20;1.00;;;;;;5100630;28;20584;-53
2023/06/15 05:53:40;;;;;;;8.83;7.97;;;19.20;1.00;;;;;;5109383;28;20206;-48
2023/06/15 05:56:06;;;;;;;7.67;6.97;;;19.20;1.00;;;;;;5107851;28;20501;-51
2023/06/15 05:58:31;;;;;;;10.50;9.50;;;19.40;1.00;;;;;;5086570;28;20175;-52
2023/06/15 06:00:57;;;;;;;9.03;8.10;;;19.70;1.00;;;;;;5107451;28;20172;-51
2023/06/15 06:03:22;;;;;;;7.97;7.27;;;20.10;1.00;;;;;;5090597;28;20176;-49
2023/06/15 06:05:48;;;;;;;8.17;7.37;;;20.40;1.00;;;;;;5091233;28;20340;-52
2023/06/15 06:08:15;;;;;;;9.83;8.80;;;20.70;1.00;;;;;;5093503;28;20175;-51
2023/06/15 06:10:40;;;;;;;9.33;8.50;;;20.50;1.00;;;;;;5109073;28;20510;-53
2023/06/15 06:13:06;;;;;;;8.90;7.20;;;20.40;1.00;;;;;;5094719;28;20515;-52
2023/06/15 06:15:32;;;;;;;8.80;8.00;;;20.60;1.00;;;;;;5114464;28;20578;-50
2023/06/15 06:17:57;;;;;;;9.97;9.07;;;20.70;1.00;;;;;;5113202;28;20292;-53
2023/06/15 06:20:23;;;;;;;12.93;8.33;;;20.70;1.00;;;;;;5111950;28;20190;-50
2023/06/15 06:22:48;;;;;;;7.70;6.70;;;21.00;1.00;;;;;;5114849;28;20643;-55
2023/06/15 06:25:14;;;;;;;7.70;7.00;;;21.30;1.00;;;;;;5096879;28;20202;-54
2023/06/15 06:27:41;;;;;;;6.83;6.33;;;21.60;1.00;;;;;;5112672;28;20237;-54
2023/06/15 06:30:07;;;;;;;7.93;7.13;;;21.80;1.00;;;;;;5094200;28;20501;-50
2023/06/15 06:32:33;;;;;;;8.00;7.00;;;22.00;1.00;;;;;;5092294;28;20481;-52
2023/06/15 06:34:58;;;;;;;6.93;6.30;;;22.20;1.00;;;;;;5113418;28;20425;-51
2023/06/15 06:37:27;;;;;;;8.13;6.37;;;22.30;1.00;;;;;;5114260;28;20207;-55
2023/06/15 06:39:52;;;;;;;9.07;6.00;;;22.50;1.00;;;;;;5113417;28;20179;-51
2023/06/15 06:42:18;;;;;;;7.00;6.40;;;22.70;1.00;;;;;;5113431;28;20881;-50
2023/06/15 06:44:43;;;;;;;6.80;6.20;;;22.80;1.00;;;;;;5113775;28;20168;-54
2023/06/15 06:47:09;;;;;;;7.20;6.40;;;22.80;1.00;;;;;;5113171;28;20183;-55
2023/06/15 06:49:35;;;;;;;6.50;5.80;;;23.00;1.00;;;;;;5095607;28;20191;-52
2023/06/15 06:52:00;;;;;;;6.70;6.20;;;23.00;1.00;;;;;;5112338;28;20190;-53
2023/06/15 06:54:26;;;;;;;7.67;7.07;;;23.20;1.00;;;;;;5114019;28;20175;-51
2023/06/15 06:56:52;;;;;;;6.90;6.30;;;23.10;1.00;;;;;;5093079;28;20732;-54
2023/06/15 06:59:17;;;;;;;7.43;6.70;;;23.20;1.00;;;;;;5095177;28;20224;-51
2023/06/15 07:01:43;;;;;;;7.60;6.90;;;23.30;1.00;;;;;;5109492;28;20272;-55
2023/06/15 07:04:13;;;;;;;6.40;5.90;;;23.40;1.00;;;;;;5113486;28;20205;-52
2023/06/15 07:06:40;;;;;;;6.00;5.47;;;23.40;1.00;;;;;;5112527;28;20645;-53
2023/06/15 07:09:06;;;;;;;6.90;6.30;;;23.50;1.00;;;;;;5095519;28;20508;-53
2023/06/15 07:11:32;;;;;;;6.90;6.17;;;23.60;1.00;;;;;;5093349;28;20430;-54
2023/06/15 07:13:58;;;;;;;6.90;6.30;;;23.70;1.00;;;;;;5095848;28;20211;-53
2023/06/15 07:16:24;;;;;;;6.73;6.23;;;23.80;1.00;;;;;;5114171;28;20289;-52
2023/06/15 07:18:50;;;;;;;6.87;6.17;;;23.70;1.00;;;;;;5114114;28;20829;-52
2023/06/15 07:21:15;;;;;;;7.87;7.07;;;23.70;1.00;;;;;;5111341;28;20406;-54
2023/06/15 07:23:41;;;;;;;8.07;7.47;;;23.70;1.00;;;;;;5111696;28;20304;-50
2023/06/15 07:26:06;;;;;;;6.93;6.27;;;23.80;1.00;;;;;;5114864;28;20205;-51
2023/06/15 07:28:32;;;;;;;7.47;6.73;;;23.80;1.00;;;;;;5114425;28;20605;-53
2023/06/15 07:30:58;;;;;;;7.13;6.60;;;23.80;1.00;;;;;;5113601;28;20191;-52
2023/06/15 07:33:23;;;;;;;6.80;6.20;;;23.80;1.00;;;;;;5096495;28;20246;-53
2023/06/15 07:35:52;;;;;;;7.73;6.90;;;23.90;1.00;;;;;;5116928;28;20183;-53
2023/06/15 07:38:17;;;;;;;6.70;6.10;;;24.10;1.00;;;;;;5077454;28;20253;-55
2023/06/15 07:40:43;;;;;;;7.20;6.60;;;24.30;1.00;;;;;;5113353;28;20820;-56
2023/06/15 07:43:10;;;;;;;8.37;7.63;;;24.50;1.00;;;;;;5080338;28;20211;-52
2023/06/15 07:45:36;;;;;;;8.90;7.33;;;24.80;1.00;;;;;;5118077;28;20684;-54
2023/06/15 07:48:02;;;;;;;8.03;6.50;;;25.00;1.00;;;;;;5116895;28;20948;-54
2023/06/15 07:50:28;;;;;;;7.50;6.90;;;25.10;1.00;;;;;;5099011;28;20432;-52
2023/06/15 07:52:54;;;;;;;6.90;6.30;;;25.30;1.00;;;;;;5097758;28;20479;-55
2023/06/15 07:55:20;;;;;;;8.47;7.77;;;25.50;1.00;;;;;;5115990;28;20823;-56
2023/06/15 07:57:46;;;;;;;7.93;7.23;;;25.60;1.00;;;;;;5115122;28;20179;-42
2023/06/15 08:00:12;;;;;;;7.60;6.90;;;25.60;1.00;;;;;;5096622;28;20259;-42
2023/06/15 08:02:37;;;;;;;7.60;6.87;;;25.70;1.00;;;;;;5115596;28;20176;-41
2023/06/15 08:05:03;;;;;;;8.27;7.53;;;26.00;1.00;;;;;;5115865;28;20866;-43
2023/06/15 08:07:30;;;;;;;8.87;7.10;;;26.30;1.00;;;;;;5117594;28;20262;-42
2023/06/15 08:09:59;;;;;;;8.07;7.30;;;26.40;1.00;;;;;;5118114;28;20461;-42
2023/06/15 08:12:25;;;;;;;7.77;7.07;;;26.10;1.00;;;;;;5119356;28;20452;-42
2023/06/15 08:14:51;;;;;;;7.00;6.50;;;26.00;1.00;;;;;;5118581;28;20452;-42
2023/06/15 08:17:16;;;;;;;7.53;6.77;;;26.00;1.00;;;;;;5100252;28;20512;-43
2023/06/15 08:19:42;;;;;;;7.70;7.10;;;26.10;1.00;;;;;;5100564;28;20545;-45
2023/06/15 08:22:07;;;;;;;7.27;6.60;;;26.30;1.00;;;;;;5099643;28;20184;-44
2023/06/15 08:24:33;;;;;;;7.93;7.13;;;26.40;1.00;;;;;;5118759;28;20192;-43
2023/06/15 08:27:02;;;;;;;6.83;6.23;;;26.60;1.00;;;;;;5118048;28;20549;-43
2023/06/15 08:29:27;;;;;;;7.10;6.50;;;26.70;1.00;;;;;;5118095;28;20172;-44
2023/06/15 08:31:53;;;;;;;6.97;6.37;;;26.70;1.00;;;;;;5116619;28;20585;-43
2023/06/15 08:34:19;;;;;;;7.27;6.67;;;26.90;1.00;;;;;;5115598;28;20264;-42
2023/06/15 08:36:46;;;;;;;7.37;6.77;;;27.00;1.00;;;;;;5096922;28;20175;-44
2023/06/15 08:39:11;;;;;;;6.73;6.23;;;27.30;1.00;;;;;;5115414;28;20172;-45
2023/06/15 08:41:37;;;;;;;7.07;6.57;;;27.40;1.00;;;;;;5114923;28;20690;-42
2023/06/15 08:44:05;;;;;;;6.77;6.10;;;27.40;1.00;;;;;;5116417;28;20176;-46
2023/06/15 08:46:30;;;;;;;8.20;7.40;;;27.50;1.00;;;;;;5118531;28;20429;-44
2023/06/15 08:49:00;;;;;;;6.70;6.20;;;27.60;1.00;;;;;;5115953;28;20425;-44
2023/06/15 08:51:28;;;;;;;9.13;7.30;;;27.80;1.00;;;;;;5096333;28;20171;-42
2023/06/15 08:53:54;;;;;;;7.43;6.73;;;28.10;1.00;;;;;;5113926;28;20457;-42
2023/06/15 08:56:21;;;;;;;7.33;6.73;;;28.00;1.00;;;;;;5111779;28;20522;-41
2023/06/15 08:58:49;;;;;;;7.60;7.00;;;28.00;1.00;;;;;;5112704;28;20418;-43
2023/06/15 09:01:22;;;;;;;6.73;6.23;;;28.10;1.00;;;;;;5096582;28;20880;-42
2023/06/15 09:03:51;;;;;;;6.87;6.23;;;28.10;1.00;;;;;;5115205;28;20828;-43
2023/06/15 09:06:21;;;;;;;7.73;6.60;;;28.30;1.00;;;;;;5113370;28;20484;-42
2023/06/15 09:08:48;;;;;;;6.50;6.00;;;28.30;1.00;;;;;;5096735;28;20482;-45
2023/06/15 09:11:14;;;;;;;6.50;6.00;;;28.50;1.00;;;;;;5115400;28;20586;-43
2023/06/15 09:13:41;;;;;;;6.47;5.87;;;28.70;1.00;;;;;;5114026;28;20583;-45
2023/06/15 09:16:08;;;;;;;6.60;6.10;;;29.00;1.00;;;;;;5092152;28;20488;-43
2023/06/15 09:18:49;;;;;;;6.50;6.00;;;29.10;1.00;;;;;;5091850;28;20415;-43
2023/06/15 09:21:16;;;;;;;6.20;5.60;;;29.10;1.00;;;;;;5093628;28;20410;-43
2023/06/15 09:23:45;;;;;;;6.50;6.00;;;29.00;1.00;;;;;;5092879;28;20709;-43
2023/06/15 09:26:22;;;;;;;8.33;5.70;;;29.10;1.00;;;;;;5092917;28;20434;-45
2023/06/15 09:28:48;;;;;;;7.20;6.60;;;29.10;1.00;;;;;;5093233;28;20554;-43
2023/06/15 09:31:31;;;;;;;6.03;5.57;;;29.30;1.00;;;;;;5091905;28;20496;-43
2023/06/15 09:34:12;;;;;;;6.77;6.17;;;29.20;1.00;;;;;;5095018;28;20532;-46
2023/06/15 09:36:46;;;;;;;5.90;5.30;;;29.20;1.00;;;;;;5095691;28;20429;-43
2023/06/15 09:39:13;;;;;;;5.57;5.17;;;29.70;1.00;;;;;;5089202;28;20422;-43
2023/06/15 09:42:04;;;;;;;5.90;5.30;;;30.10;1.00;;;;;;5076505;28;20848;-42
2023/06/15 09:44:32;;;;;;;5.40;5.00;;;30.40;1.00;;;;;;5072411;28;20499;-43
2023/06/15 09:46:59;;;;;;;4.97;4.57;;;30.70;1.00;;;;;;5073875;28;20493;-43
2023/06/15 09:49:26;;;;;;;5.30;4.80;;;30.50;1.00;;;;;;5073904;28;20423;-43
2023/06/15 09:51:53;;;;;;;5.30;4.80;;;30.20;1.00;;;;;;5074122;28;20453;-44
2023/06/15 09:54:22;;;;;;;7.40;5.83;;;29.70;1.00;;;;;;5072447;28;20512;-44
2023/06/15 09:56:51;;;;;;;7.13;6.43;;;29.90;1.00;;;;;;5091914;28;20377;-44
2023/06/15 09:59:18;;;;;;;6.90;6.07;;;29.60;1.00;;;;;;5093430;28;20698;-43
2023/06/15 10:01:53;;;;;;;6.20;5.60;;;29.50;1.00;;;;;;5092909;28;20452;-42
2023/06/15 10:04:21;;;;;;;7.07;6.43;;;30.00;1.00;;;;;;5094366;28;20406;-44
2023/06/15 10:06:51;;;;;;;6.93;6.23;;;30.30;1.00;;;;;;5076129;28;20465;-44
2023/06/15 10:09:23;;;;;;;6.13;5.63;;;30.10;1.00;;;;;;5093195;28;20441;-44
2023/06/15 10:11:50;;;;;;;6.33;5.83;;;29.60;1.00;;;;;;5091922;28;20396;-44
2023/06/15 10:14:31;;;;;;;6.80;6.07;;;29.20;99.90;;;;;;5091873;28;20481;-43
2023/06/15 10:17:01;;;;;;;5.90;5.40;;;28.80;99.90;;;;;;5104089;28;20461;-43
2023/06/15 10:19:28;;;;;;;6.83;5.80;;;28.20;99.90;;;;;;5112835;28;20435;-43
2023/06/15 10:21:54;;;;;;;5.70;5.30;;;28.00;99.90;;;;;;5096075;28;20491;-46
2023/06/15 10:24:22;;;;;;;5.60;5.20;;;28.20;99.90;;;;;;5110658;28;20686;-43
2023/06/15 10:26:48;;;;;;;5.70;5.30;;;28.50;99.90;;;;;;5111356;28;20437;-45
2023/06/15 10:29:36;;;;;;;6.47;5.87;;;28.50;99.90;;;;;;5113178;28;20680;-45
2023/06/15 10:32:18;;;;;;;5.93;5.33;;;28.20;99.90;;;;;;5113042;28;20187;-43
2023/06/15 10:34:45;;;;;;;8.17;6.10;;;27.90;99.90;;;;;;5092991;28;20426;-43
2023/06/15 10:37:49;;;;;;;5.37;4.90;;;28.20;99.90;;;;;;5093972;28;20458;-45
2023/06/15 10:40:27;;;;;;;5.80;5.40;;;28.90;99.90;;;;;;5110723;28;20457;-43
2023/06/15 10:42:55;;;;;;;7.90;5.90;;;29.90;1.00;;;;;;5091997;28;20468;-45
2023/06/15 10:45:32;;;;;;;6.40;5.70;;;30.80;1.00;;;;;;5089983;28;20437;-45
2023/06/15 10:48:03;;;;;;;7.10;5.77;;;31.70;1.00;;;;;;5110775;28;20429;-45
2023/06/15 10:50:41;;;;;;;5.80;5.30;;;32.20;1.00;;;;;;5075871;28;20821;-44
2023/06/15 10:53:39;;;;;;;6.20;5.70;;;32.40;1.00;;;;;;5092856;28;20882;-43
2023/06/15 10:56:14;;;;;;;6.87;6.33;;;32.50;1.00;;;;;;5091892;28;20432;-43
2023/06/15 10:58:57;;;;;;;8.40;6.03;;;31.00;99.90;;;;;;5111642;28;20424;-42
2023/06/15 11:01:32;;;;;;;6.10;5.50;;;30.40;99.90;;;;;;5093292;28;20811;-45
2023/06/15 11:04:00;;;;;;;5.83;5.33;;;29.80;99.90;;;;;;5111452;28;20417;-41
2023/06/15 11:06:36;;;;;;;6.10;5.60;;;29.40;99.90;;;;;;5112481;28;20424;-42
2023/06/15 11:09:08;;;;;;;5.97;5.37;;;29.00;99.90;;;;;;5109520;28;20404;-43
2023/06/15 11:11:36;;;;;;;6.27;5.67;;;28.70;99.90;;;;;;5112168;28;20429;-44
2023/06/15 11:14:22;;;;;;;6.67;6.10;;;28.50;99.90;;;;;;5112585;28;20861;-43
2023/06/15 11:17:04;;;;;;;5.70;5.20;;;28.60;99.90;;;;;;5093970;28;20634;-43
2023/06/15 11:19:30;;;;;;;5.70;5.30;;;28.80;99.90;;;;;;5111054;28;20412;-43
2023/06/15 11:22:05;;;;;;;5.67;5.17;;;29.50;99.90;;;;;;5109921;28;20401;-42
2023/06/15 11:24:38;;;;;;;6.30;5.73;;;30.40;99.90;;;;;;5093606;28;20467;-42
2023/06/15 11:27:05;;;;;;;5.77;5.37;;;31.00;99.90;;;;;;5091903;28;20735;-49
2023/06/15 11:29:34;;;;;;;5.87;5.47;;;31.60;1.00;;;;;;5090731;28;20409;-45
2023/06/15 11:32:04;;;;;;;5.60;5.20;;;31.40;99.90;;;;;;5091107;28;20415;-44
2023/06/15 11:34:31;;;;;;;5.47;4.97;;;31.00;99.90;;;;;;5091394;28;20452;-44
2023/06/15 11:37:00;;;;;;;6.30;5.80;;;30.30;99.90;;;;;;5113015;28;20417;-42
2023/06/15 11:39:27;;;;;;;6.07;5.57;;;29.60;99.90;;;;;;5091883;28;20417;-42
2023/06/15 11:41:53;;;;;;;5.40;5.00;;;29.30;99.90;;;;;;5111674;28;20854;-41
2023/06/15 11:44:21;;;;;;;5.90;5.40;;;29.00;99.90;;;;;;5111239;28;20413;-43
2023/06/15 11:46:55;;;;;;;5.03;4.73;;;28.80;99.90;;;;;;5109699;28;20449;-45
2023/06/15 11:49:21;;;;;;;5.67;5.10;;;28.60;99.90;;;;;;5109893;28;20380;-42
2023/06/15 11:51:47;;;;;;;6.23;5.73;;;28.50;99.90;;;;;;5112566;28;20425;-46
2023/06/15 11:54:13;;;;;;;6.20;5.70;;;28.40;99.90;;;;;;5112279;28;20700;-42
2023/06/15 11:56:49;;;;;;;6.53;6.03;;;27.60;99.90;;;;;;5110689;28;20432;-43
2023/06/15 11:59:16;;;;;;;6.00;5.47;;;27.20;99.90;;;;;;5111086;28;20440;-44
2023/06/15 12:01:42;;;;;;;6.30;5.80;;;27.20;99.90;;;;;;5074480;28;20441;-43
2023/06/15 12:04:13;;;;;;;5.87;5.37;;;27.50;99.90;;;;;;5090624;28;20433;-45
2023/06/15 12:06:44;;;;;;;6.03;5.60;;;27.90;99.90;;;;;;5109953;28;20466;-44
2023/06/15 12:09:10;;;;;;;6.77;6.07;;;28.20;99.90;;;;;;5091765;28;20445;-44
2023/06/15 12:11:36;;;;;;;6.00;5.50;;;28.20;99.90;;;;;;5080451;28;20882;-43
2023/06/15 12:14:21;;;;;;;6.10;5.70;;;28.20;99.90;;;;;;5076820;28;20303;-44
2023/06/15 12:16:51;;;;;;;6.50;5.90;;;28.00;99.90;;;;;;5073222;28;20738;-45
2023/06/15 12:19:18;;;;;;;6.17;5.60;;;27.80;99.90;;;;;;5072585;28;20423;-43
2023/06/15 12:21:44;;;;;;;6.50;6.00;;;28.10;99.90;;;;;;5070009;28;20427;-42
2023/06/15 12:24:14;;;;;;;6.50;5.97;;;28.50;99.90;;;;;;5072414;28;20737;-46
2023/06/15 12:26:40;;;;;;;6.40;5.90;;;28.70;99.90;;;;;;5072485;28;20431;-44
2023/06/15 12:29:16;;;;;;;6.33;5.73;;;28.80;99.90;;;;;;5071209;28;20410;-42
2023/06/15 12:31:41;;;;;;;6.17;5.70;;;28.80;99.90;;;;;;5070895;28;20726;-45
2023/06/15 12:34:08;;;;;;;6.50;5.90;;;29.00;99.90;;;;;;5073751;28;20789;-44
2023/06/15 12:36:36;;;;;;;6.47;5.97;;;29.50;99.90;;;;;;5073526;28;20260;-44
2023/06/15 12:39:09;;;;;;;5.73;5.23;;;30.00;99.90;;;;;;5071801;28;20496;-43
2023/06/15 12:41:39;;;;;;;5.60;5.10;;;30.90;99.90;;;;;;5074935;28;20423;-45
2023/06/15 12:44:06;;;;;;;5.80;5.40;;;31.60;99.90;;;;;;5074862;28;20426;-43
2023/06/15 12:46:34;;;;;;;7.07;6.57;;;32.40;1.00;;;;;;5075427;28;20641;-43
2023/06/15 12:49:00;;;;;;;6.00;5.53;;;32.90;1.00;;;;;;5072963;28;20423;-43
2023/06/15 12:51:26;;;;;;;6.10;5.70;;;33.20;1.00;;;;;;5072063;28;20463;-43
2023/06/15 12:53:51;;;;;;;7.20;6.60;;;33.20;1.00;;;;;;5070648;28;20278;-42
2023/06/15 12:56:17;;;;;;;6.60;6.03;;;33.30;1.00;;;;;;5072755;28;20551;-43